sensor_id;sensor_type;location;lat;lon;timestamp;P1;durP1;ratioP1;P2;durP2;ratioP2
22778;SDS011;11556;51.194;3.800;2022-12-18T00:01:27;89.40;;;33.65;;
22778;SDS011;11556;51.194;3.800;2022-12-18T00:03:54;82.57;;;34.45;;
22778;SDS011;11556;51.194;3.800;2022-12-18T00:06:20;87.00;;;35.60;;
22778;SDS011;11556;51.194;3.800;2022-12-18T00:08:47;89.45;;;35.42;;
22778;SDS011;11556;51.194;3.800;2022-12-18T00:11:14;83.82;;;33.55;;
22778;SDS011;11556;51.194;3.800;2022-12-18T00:13:42;87.82;;;35.20;;
22778;SDS011;11556;51.194;3.800;2022-12-18T00:16:12;89.28;;;33.92;;
22778;SDS011;11556;51.194;3.800;2022-12-18T00:18:39;89.67;;;33.03;;
22778;SDS011;11556;51.194;3.800;2022-12-18T00:21:07;91.93;;;35.65;;
22778;SDS011;11556;51.194;3.800;2022-12-18T00:23:34;85.35;;;34.10;;
22778;SDS011;11556;51.194;3.800;2022-12-18T00:26:01;89.20;;;33.75;;
22778;SDS011;11556;51.194;3.800;2022-12-18T00:28:28;92.63;;;34.13;;
22778;SDS011;11556;51.194;3.800;2022-12-18T00:31:05;94.65;;;34.08;;
22778;SDS011;11556;51.194;3.800;2022-12-18T00:33:32;94.32;;;35.22;;
22778;SDS011;11556;51.194;3.800;2022-12-18T00:36:06;93.13;;;35.08;;
22778;SDS011;11556;51.194;3.800;2022-12-18T00:38:33;93.30;;;34.70;;
22778;SDS011;11556;51.194;3.800;2022-12-18T00:41:00;92.03;;;35.00;;
22778;SDS011;11556;51.194;3.800;2022-12-18T00:43:25;91.65;;;33.55;;
22778;SDS011;11556;51.194;3.800;2022-12-18T00:45:51;89.90;;;34.20;;
22778;SDS011;11556;51.194;3.800;2022-12-18T00:48:17;100.90;;;35.75;;
22778;SDS011;11556;51.194;3.800;2022-12-18T00:50:43;89.03;;;33.78;;
22778;SDS011;11556;51.194;3.800;2022-12-18T00:53:08;89.32;;;33.65;;
22778;SDS011;11556;51.194;3.800;2022-12-18T00:55:34;90.43;;;33.67;;
22778;SDS011;11556;51.194;3.800;2022-12-18T00:57:59;84.25;;;32.80;;
22778;SDS011;11556;51.194;3.800;2022-12-18T01:00:25;88.45;;;32.63;;
22778;SDS011;11556;51.194;3.800;2022-12-18T01:02:50;89.60;;;34.17;;
22778;SDS011;11556;51.194;3.800;2022-12-18T01:05:16;84.45;;;33.40;;
22778;SDS011;11556;51.194;3.800;2022-12-18T01:07:42;86.22;;;33.53;;
22778;SDS011;11556;51.194;3.800;2022-12-18T01:10:08;87.75;;;34.45;;
22778;SDS011;11556;51.194;3.800;2022-12-18T01:12:36;86.75;;;33.08;;
22778;SDS011;11556;51.194;3.800;2022-12-18T01:15:02;93.65;;;34.22;;
22778;SDS011;11556;51.194;3.800;2022-12-18T01:17:30;88.85;;;32.80;;
22778;SDS011;11556;51.194;3.800;2022-12-18T01:19:55;90.78;;;35.22;;
22778;SDS011;11556;51.194;3.800;2022-12-18T01:22:21;89.63;;;35.03;;
22778;SDS011;11556;51.194;3.800;2022-12-18T01:24:46;92.57;;;34.30;;
22778;SDS011;11556;51.194;3.800;2022-12-18T01:27:12;88.85;;;34.70;;
22778;SDS011;11556;51.194;3.800;2022-12-18T01:29:37;85.00;;;33.45;;
22778;SDS011;11556;51.194;3.800;2022-12-18T01:32:03;85.88;;;33.30;;
22778;SDS011;11556;51.194;3.800;2022-12-18T01:34:29;81.47;;;32.08;;
22778;SDS011;11556;51.194;3.800;2022-12-18T01:36:54;81.70;;;33.05;;
22778;SDS011;11556;51.194;3.800;2022-12-18T01:39:20;89.20;;;33.30;;
22778;SDS011;11556;51.194;3.800;2022-12-18T01:41:45;90.80;;;31.15;;
22778;SDS011;11556;51.194;3.800;2022-12-18T01:49:59;77.93;;;29.95;;
22778;SDS011;11556;51.194;3.800;2022-12-18T01:52:29;79.20;;;31.67;;
22778;SDS011;11556;51.194;3.800;2022-12-18T01:54:57;83.93;;;32.97;;
22778;SDS011;11556;51.194;3.800;2022-12-18T01:57:24;80.85;;;32.13;;
22778;SDS011;11556;51.194;3.800;2022-12-18T01:59:52;81.70;;;31.00;;
22778;SDS011;11556;51.194;3.800;2022-12-18T02:02:19;71.10;;;29.95;;
22778;SDS011;11556;51.194;3.800;2022-12-18T02:04:46;86.18;;;32.08;;
22778;SDS011;11556;51.194;3.800;2022-12-18T02:09:48;78.53;;;31.75;;
22778;SDS011;11556;51.194;3.800;2022-12-18T02:12:22;84.68;;;33.83;;
22778;SDS011;11556;51.194;3.800;2022-12-18T02:17:45;81.18;;;32.20;;
22778;SDS011;11556;51.194;3.800;2022-12-18T02:25:52;84.20;;;30.48;;
22778;SDS011;11556;51.194;3.800;2022-12-18T02:28:41;73.78;;;29.63;;
22778;SDS011;11556;51.194;3.800;2022-12-18T02:31:11;84.68;;;30.95;;
22778;SDS011;11556;51.194;3.800;2022-12-18T02:33:39;72.35;;;29.58;;
22778;SDS011;11556;51.194;3.800;2022-12-18T02:36:06;73.05;;;29.42;;
22778;SDS011;11556;51.194;3.800;2022-12-18T02:38:34;74.78;;;30.30;;
22778;SDS011;11556;51.194;3.800;2022-12-18T02:41:00;74.80;;;29.65;;
22778;SDS011;11556;51.194;3.800;2022-12-18T02:43:28;72.35;;;29.17;;
22778;SDS011;11556;51.194;3.800;2022-12-18T02:45:58;79.25;;;30.48;;
22778;SDS011;11556;51.194;3.800;2022-12-18T02:48:31;73.95;;;29.65;;
22778;SDS011;11556;51.194;3.800;2022-12-18T02:53:48;74.80;;;30.38;;
22778;SDS011;11556;51.194;3.800;2022-12-18T02:56:36;69.70;;;28.83;;
22778;SDS011;11556;51.194;3.800;2022-12-18T02:59:14;77.43;;;29.45;;
22778;SDS011;11556;51.194;3.800;2022-12-18T03:01:51;68.80;;;28.38;;
22778;SDS011;11556;51.194;3.800;2022-12-18T03:04:30;69.63;;;29.60;;
22778;SDS011;11556;51.194;3.800;2022-12-18T03:07:09;72.35;;;28.98;;
22778;SDS011;11556;51.194;3.800;2022-12-18T03:09:41;85.60;;;29.52;;
22778;SDS011;11556;51.194;3.800;2022-12-18T03:14:47;76.20;;;28.95;;
22778;SDS011;11556;51.194;3.800;2022-12-18T03:17:26;72.75;;;28.60;;
22778;SDS011;11556;51.194;3.800;2022-12-18T03:19:53;74.82;;;30.60;;
22778;SDS011;11556;51.194;3.800;2022-12-18T03:22:23;78.25;;;29.75;;
22778;SDS011;11556;51.194;3.800;2022-12-18T03:24:53;73.53;;;28.73;;
22778;SDS011;11556;51.194;3.800;2022-12-18T03:27:22;76.25;;;29.95;;
22778;SDS011;11556;51.194;3.800;2022-12-18T03:29:59;71.40;;;29.45;;
22778;SDS011;11556;51.194;3.800;2022-12-18T03:32:33;75.72;;;29.23;;
22778;SDS011;11556;51.194;3.800;2022-12-18T03:35:09;80.57;;;30.27;;
22778;SDS011;11556;51.194;3.800;2022-12-18T03:37:38;86.32;;;30.52;;
22778;SDS011;11556;51.194;3.800;2022-12-18T03:40:04;74.35;;;29.35;;
22778;SDS011;11556;51.194;3.800;2022-12-18T03:50:15;61.10;;;27.77;;
22778;SDS011;11556;51.194;3.800;2022-12-18T03:55:25;70.85;;;28.10;;
22778;SDS011;11556;51.194;3.800;2022-12-18T03:57:54;68.43;;;28.27;;
22778;SDS011;11556;51.194;3.800;2022-12-18T04:00:20;67.40;;;28.30;;
22778;SDS011;11556;51.194;3.800;2022-12-18T04:02:48;69.18;;;26.90;;
22778;SDS011;11556;51.194;3.800;2022-12-18T04:05:17;67.20;;;26.48;;
22778;SDS011;11556;51.194;3.800;2022-12-18T04:07:44;66.35;;;26.15;;
22778;SDS011;11556;51.194;3.800;2022-12-18T04:10:12;70.93;;;27.17;;
22778;SDS011;11556;51.194;3.800;2022-12-18T04:12:39;74.80;;;28.48;;
22778;SDS011;11556;51.194;3.800;2022-12-18T04:15:06;65.22;;;26.73;;
22778;SDS011;11556;51.194;3.800;2022-12-18T04:17:32;63.28;;;26.33;;
22778;SDS011;11556;51.194;3.800;2022-12-18T04:19:58;69.90;;;27.17;;
22778;SDS011;11556;51.194;3.800;2022-12-18T04:22:24;68.75;;;27.92;;
22778;SDS011;11556;51.194;3.800;2022-12-18T04:24:49;71.25;;;31.08;;
22778;SDS011;11556;51.194;3.800;2022-12-18T04:27:15;64.88;;;26.75;;
22778;SDS011;11556;51.194;3.800;2022-12-18T04:29:40;64.63;;;26.88;;
22778;SDS011;11556;51.194;3.800;2022-12-18T04:32:06;61.83;;;25.35;;
22778;SDS011;11556;51.194;3.800;2022-12-18T04:34:32;64.18;;;26.27;;
22778;SDS011;11556;51.194;3.800;2022-12-18T04:36:58;65.50;;;25.95;;
22778;SDS011;11556;51.194;3.800;2022-12-18T04:39:23;64.68;;;26.10;;
22778;SDS011;11556;51.194;3.800;2022-12-18T04:41:49;60.72;;;25.13;;
22778;SDS011;11556;51.194;3.800;2022-12-18T04:44:14;59.90;;;24.45;;
22778;SDS011;11556;51.194;3.800;2022-12-18T04:46:40;62.53;;;23.63;;
22778;SDS011;11556;51.194;3.800;2022-12-18T04:49:06;62.55;;;25.38;;
22778;SDS011;11556;51.194;3.800;2022-12-18T04:51:31;65.50;;;26.92;;
22778;SDS011;11556;51.194;3.800;2022-12-18T04:53:57;64.22;;;24.90;;
22778;SDS011;11556;51.194;3.800;2022-12-18T04:56:23;60.17;;;24.20;;
22778;SDS011;11556;51.194;3.800;2022-12-18T04:58:49;58.05;;;24.45;;
22778;SDS011;11556;51.194;3.800;2022-12-18T05:01:15;67.25;;;25.45;;
22778;SDS011;11556;51.194;3.800;2022-12-18T05:03:42;56.55;;;23.48;;
22778;SDS011;11556;51.194;3.800;2022-12-18T05:06:08;55.85;;;24.08;;
22778;SDS011;11556;51.194;3.800;2022-12-18T05:08:33;60.88;;;24.52;;
22778;SDS011;11556;51.194;3.800;2022-12-18T05:11:00;54.60;;;23.10;;
22778;SDS011;11556;51.194;3.800;2022-12-18T05:13:27;57.97;;;23.42;;
22778;SDS011;11556;51.194;3.800;2022-12-18T05:15:53;53.47;;;22.20;;
22778;SDS011;11556;51.194;3.800;2022-12-18T05:18:20;51.78;;;22.60;;
22778;SDS011;11556;51.194;3.800;2022-12-18T05:20:46;53.00;;;21.40;;
22778;SDS011;11556;51.194;3.800;2022-12-18T05:23:12;54.42;;;21.00;;
22778;SDS011;11556;51.194;3.800;2022-12-18T05:25:38;52.13;;;21.50;;
22778;SDS011;11556;51.194;3.800;2022-12-18T05:28:03;51.92;;;20.77;;
22778;SDS011;11556;51.194;3.800;2022-12-18T05:30:29;52.13;;;19.75;;
22778;SDS011;11556;51.194;3.800;2022-12-18T05:32:54;52.90;;;20.73;;
22778;SDS011;11556;51.194;3.800;2022-12-18T05:35:20;49.35;;;20.50;;
22778;SDS011;11556;51.194;3.800;2022-12-18T05:37:45;51.80;;;21.98;;
22778;SDS011;11556;51.194;3.800;2022-12-18T05:40:11;53.42;;;21.70;;
22778;SDS011;11556;51.194;3.800;2022-12-18T05:42:37;49.97;;;20.13;;
22778;SDS011;11556;51.194;3.800;2022-12-18T05:45:03;51.15;;;21.20;;
22778;SDS011;11556;51.194;3.800;2022-12-18T05:47:29;48.50;;;21.02;;
22778;SDS011;11556;51.194;3.800;2022-12-18T05:49:55;46.47;;;20.52;;
22778;SDS011;11556;51.194;3.800;2022-12-18T05:52:21;51.45;;;20.58;;
22778;SDS011;11556;51.194;3.800;2022-12-18T05:54:46;47.25;;;20.25;;
22778;SDS011;11556;51.194;3.800;2022-12-18T05:57:12;48.10;;;19.48;;
22778;SDS011;11556;51.194;3.800;2022-12-18T05:59:37;45.35;;;19.60;;
22778;SDS011;11556;51.194;3.800;2022-12-18T06:02:03;45.20;;;18.73;;
22778;SDS011;11556;51.194;3.800;2022-12-18T06:04:30;39.45;;;18.33;;
22778;SDS011;11556;51.194;3.800;2022-12-18T06:06:55;44.97;;;18.25;;
22778;SDS011;11556;51.194;3.800;2022-12-18T06:09:21;44.40;;;20.17;;
22778;SDS011;11556;51.194;3.800;2022-12-18T06:11:47;45.10;;;18.55;;
22778;SDS011;11556;51.194;3.800;2022-12-18T06:14:12;41.80;;;18.25;;
22778;SDS011;11556;51.194;3.800;2022-12-18T06:16:38;43.08;;;18.45;;
22778;SDS011;11556;51.194;3.800;2022-12-18T06:19:04;45.95;;;18.98;;
22778;SDS011;11556;51.194;3.800;2022-12-18T06:21:31;36.88;;;17.58;;
22778;SDS011;11556;51.194;3.800;2022-12-18T06:23:57;47.17;;;18.92;;
22778;SDS011;11556;51.194;3.800;2022-12-18T06:26:23;43.90;;;17.70;;
22778;SDS011;11556;51.194;3.800;2022-12-18T06:28:49;48.95;;;19.20;;
22778;SDS011;11556;51.194;3.800;2022-12-18T06:31:14;46.05;;;18.95;;
22778;SDS011;11556;51.194;3.800;2022-12-18T06:33:40;41.50;;;18.50;;
22778;SDS011;11556;51.194;3.800;2022-12-18T06:36:10;42.75;;;19.42;;
22778;SDS011;11556;51.194;3.800;2022-12-18T06:38:37;44.33;;;18.75;;
22778;SDS011;11556;51.194;3.800;2022-12-18T06:41:08;43.35;;;18.73;;
22778;SDS011;11556;51.194;3.800;2022-12-18T06:43:44;41.13;;;17.27;;
22778;SDS011;11556;51.194;3.800;2022-12-18T06:46:10;41.08;;;18.42;;
22778;SDS011;11556;51.194;3.800;2022-12-18T06:48:37;37.67;;;17.85;;
22778;SDS011;11556;51.194;3.800;2022-12-18T06:51:03;32.47;;;14.38;;
22778;SDS011;11556;51.194;3.800;2022-12-18T06:53:29;39.33;;;17.98;;
22778;SDS011;11556;51.194;3.800;2022-12-18T06:56:01;39.72;;;17.85;;
22778;SDS011;11556;51.194;3.800;2022-12-18T06:58:28;42.05;;;18.42;;
22778;SDS011;11556;51.194;3.800;2022-12-18T07:00:54;35.47;;;17.55;;
22778;SDS011;11556;51.194;3.800;2022-12-18T07:03:28;39.10;;;16.90;;
22778;SDS011;11556;51.194;3.800;2022-12-18T07:05:54;36.90;;;16.83;;
22778;SDS011;11556;51.194;3.800;2022-12-18T07:08:19;36.95;;;16.73;;
22778;SDS011;11556;51.194;3.800;2022-12-18T07:10:45;36.92;;;17.20;;
22778;SDS011;11556;51.194;3.800;2022-12-18T07:13:11;42.90;;;17.38;;
22778;SDS011;11556;51.194;3.800;2022-12-18T07:15:36;39.05;;;17.90;;
22778;SDS011;11556;51.194;3.800;2022-12-18T07:18:02;39.42;;;17.23;;
22778;SDS011;11556;51.194;3.800;2022-12-18T07:20:28;35.40;;;15.70;;
22778;SDS011;11556;51.194;3.800;2022-12-18T07:22:53;35.03;;;16.65;;
22778;SDS011;11556;51.194;3.800;2022-12-18T07:25:19;35.60;;;16.38;;
22778;SDS011;11556;51.194;3.800;2022-12-18T07:27:44;35.53;;;15.90;;
22778;SDS011;11556;51.194;3.800;2022-12-18T07:30:10;37.30;;;15.30;;
22778;SDS011;11556;51.194;3.800;2022-12-18T07:32:36;35.80;;;15.07;;
22778;SDS011;11556;51.194;3.800;2022-12-18T07:35:02;38.50;;;15.93;;
22778;SDS011;11556;51.194;3.800;2022-12-18T07:37:27;30.42;;;13.90;;
22778;SDS011;11556;51.194;3.800;2022-12-18T07:39:53;31.60;;;15.30;;
22778;SDS011;11556;51.194;3.800;2022-12-18T07:42:18;34.30;;;16.00;;
22778;SDS011;11556;51.194;3.800;2022-12-18T07:44:57;34.17;;;14.98;;
22778;SDS011;11556;51.194;3.800;2022-12-18T07:47:23;29.60;;;14.13;;
22778;SDS011;11556;51.194;3.800;2022-12-18T07:49:48;25.48;;;13.20;;
22778;SDS011;11556;51.194;3.800;2022-12-18T07:52:14;30.73;;;14.40;;
22778;SDS011;11556;51.194;3.800;2022-12-18T07:54:40;28.92;;;13.98;;
22778;SDS011;11556;51.194;3.800;2022-12-18T07:57:06;27.05;;;11.98;;
22778;SDS011;11556;51.194;3.800;2022-12-18T07:59:32;25.77;;;13.15;;
22778;SDS011;11556;51.194;3.800;2022-12-18T08:01:58;23.65;;;11.85;;
22778;SDS011;11556;51.194;3.800;2022-12-18T08:04:23;27.35;;;12.02;;
22778;SDS011;11556;51.194;3.800;2022-12-18T08:06:50;28.55;;;13.07;;
22778;SDS011;11556;51.194;3.800;2022-12-18T08:09:16;27.70;;;13.55;;
22778;SDS011;11556;51.194;3.800;2022-12-18T08:11:41;27.40;;;13.63;;
22778;SDS011;11556;51.194;3.800;2022-12-18T08:14:07;23.38;;;11.23;;
22778;SDS011;11556;51.194;3.800;2022-12-18T08:16:33;25.88;;;12.80;;
22778;SDS011;11556;51.194;3.800;2022-12-18T08:18:59;22.40;;;12.00;;
22778;SDS011;11556;51.194;3.800;2022-12-18T08:21:26;28.42;;;12.90;;
22778;SDS011;11556;51.194;3.800;2022-12-18T08:23:53;26.80;;;12.30;;
22778;SDS011;11556;51.194;3.800;2022-12-18T08:26:21;22.15;;;11.00;;
22778;SDS011;11556;51.194;3.800;2022-12-18T08:28:47;24.77;;;12.65;;
22778;SDS011;11556;51.194;3.800;2022-12-18T08:31:13;25.48;;;12.18;;
22778;SDS011;11556;51.194;3.800;2022-12-18T08:33:40;30.20;;;13.25;;
22778;SDS011;11556;51.194;3.800;2022-12-18T08:36:06;24.30;;;12.40;;
22778;SDS011;11556;51.194;3.800;2022-12-18T08:38:33;24.25;;;12.27;;
22778;SDS011;11556;51.194;3.800;2022-12-18T08:40:59;21.73;;;11.77;;
22778;SDS011;11556;51.194;3.800;2022-12-18T08:43:26;24.83;;;12.45;;
22778;SDS011;11556;51.194;3.800;2022-12-18T08:46:10;24.23;;;12.25;;
22778;SDS011;11556;51.194;3.800;2022-12-18T08:48:36;25.75;;;12.60;;
22778;SDS011;11556;51.194;3.800;2022-12-18T08:51:02;22.83;;;11.38;;
22778;SDS011;11556;51.194;3.800;2022-12-18T08:53:27;21.88;;;12.02;;
22778;SDS011;11556;51.194;3.800;2022-12-18T08:55:53;25.33;;;12.27;;
22778;SDS011;11556;51.194;3.800;2022-12-18T08:58:20;25.33;;;11.98;;
22778;SDS011;11556;51.194;3.800;2022-12-18T09:00:46;25.50;;;12.27;;
22778;SDS011;11556;51.194;3.800;2022-12-18T09:03:15;21.67;;;11.60;;
22778;SDS011;11556;51.194;3.800;2022-12-18T09:05:42;26.42;;;12.05;;
22778;SDS011;11556;51.194;3.800;2022-12-18T09:08:10;22.13;;;11.07;;
22778;SDS011;11556;51.194;3.800;2022-12-18T09:10:45;22.38;;;11.95;;
22778;SDS011;11556;51.194;3.800;2022-12-18T09:13:12;22.77;;;11.77;;
22778;SDS011;11556;51.194;3.800;2022-12-18T09:15:43;21.75;;;11.80;;
22778;SDS011;11556;51.194;3.800;2022-12-18T09:18:10;24.17;;;11.10;;
22778;SDS011;11556;51.194;3.800;2022-12-18T09:20:37;24.30;;;11.50;;
22778;SDS011;11556;51.194;3.800;2022-12-18T09:23:03;23.75;;;11.55;;
22778;SDS011;11556;51.194;3.800;2022-12-18T09:25:30;23.50;;;11.70;;
22778;SDS011;11556;51.194;3.800;2022-12-18T09:28:01;22.50;;;11.20;;
22778;SDS011;11556;51.194;3.800;2022-12-18T09:30:28;22.50;;;11.43;;
22778;SDS011;11556;51.194;3.800;2022-12-18T09:32:53;21.88;;;11.65;;
22778;SDS011;11556;51.194;3.800;2022-12-18T09:35:19;22.55;;;11.07;;
22778;SDS011;11556;51.194;3.800;2022-12-18T09:37:45;22.70;;;12.65;;
22778;SDS011;11556;51.194;3.800;2022-12-18T09:40:14;24.30;;;12.32;;
22778;SDS011;11556;51.194;3.800;2022-12-18T09:42:45;23.98;;;12.35;;
22778;SDS011;11556;51.194;3.800;2022-12-18T09:45:17;21.08;;;11.68;;
22778;SDS011;11556;51.194;3.800;2022-12-18T09:47:43;26.17;;;13.10;;
22778;SDS011;11556;51.194;3.800;2022-12-18T09:50:27;25.10;;;12.27;;
22778;SDS011;11556;51.194;3.800;2022-12-18T09:53:02;24.75;;;11.60;;
22778;SDS011;11556;51.194;3.800;2022-12-18T09:55:41;25.23;;;11.45;;
22778;SDS011;11556;51.194;3.800;2022-12-18T10:00:35;24.58;;;12.57;;
22778;SDS011;11556;51.194;3.800;2022-12-18T10:03:03;30.17;;;12.90;;
22778;SDS011;11556;51.194;3.800;2022-12-18T10:05:48;21.63;;;11.80;;
22778;SDS011;11556;51.194;3.800;2022-12-18T10:10:53;22.35;;;11.35;;
22778;SDS011;11556;51.194;3.800;2022-12-18T10:21:21;23.08;;;11.70;;
22778;SDS011;11556;51.194;3.800;2022-12-18T10:24:02;28.00;;;12.50;;
22778;SDS011;11556;51.194;3.800;2022-12-18T10:26:33;24.02;;;12.43;;
22778;SDS011;11556;51.194;3.800;2022-12-18T10:28:59;25.58;;;12.45;;
22778;SDS011;11556;51.194;3.800;2022-12-18T10:31:26;24.60;;;12.50;;
22778;SDS011;11556;51.194;3.800;2022-12-18T10:33:55;25.27;;;13.13;;
22778;SDS011;11556;51.194;3.800;2022-12-18T10:36:20;24.55;;;13.48;;
22778;SDS011;11556;51.194;3.800;2022-12-18T10:38:47;25.17;;;13.52;;
22778;SDS011;11556;51.194;3.800;2022-12-18T10:44:11;27.20;;;13.68;;
22778;SDS011;11556;51.194;3.800;2022-12-18T10:46:37;31.83;;;13.23;;
22778;SDS011;11556;51.194;3.800;2022-12-18T10:49:03;22.52;;;12.90;;
22778;SDS011;11556;51.194;3.800;2022-12-18T10:54:12;25.23;;;13.45;;
22778;SDS011;11556;51.194;3.800;2022-12-18T10:56:48;28.02;;;14.02;;
22778;SDS011;11556;51.194;3.800;2022-12-18T10:59:15;29.10;;;14.73;;
22778;SDS011;11556;51.194;3.800;2022-12-18T11:04:29;29.87;;;14.13;;
22778;SDS011;11556;51.194;3.800;2022-12-18T11:09:24;28.10;;;13.75;;
22778;SDS011;11556;51.194;3.800;2022-12-18T11:11:57;27.23;;;14.88;;
22778;SDS011;11556;51.194;3.800;2022-12-18T11:16:52;27.10;;;15.38;;
22778;SDS011;11556;51.194;3.800;2022-12-18T11:21:46;28.63;;;14.85;;
22778;SDS011;11556;51.194;3.800;2022-12-18T11:24:18;28.33;;;15.52;;
22778;SDS011;11556;51.194;3.800;2022-12-18T11:26:46;34.60;;;17.27;;
22778;SDS011;11556;51.194;3.800;2022-12-18T11:29:22;28.20;;;15.68;;
22778;SDS011;11556;51.194;3.800;2022-12-18T11:32:43;29.55;;;15.60;;
22778;SDS011;11556;51.194;3.800;2022-12-18T11:34:46;31.52;;;16.17;;
22778;SDS011;11556;51.194;3.800;2022-12-18T11:37:16;27.92;;;15.65;;
22778;SDS011;11556;51.194;3.800;2022-12-18T11:39:55;28.40;;;15.63;;
22778;SDS011;11556;51.194;3.800;2022-12-18T11:42:32;32.35;;;15.82;;
22778;SDS011;11556;51.194;3.800;2022-12-18T11:48:01;40.47;;;20.58;;
22778;SDS011;11556;51.194;3.800;2022-12-18T11:50:32;30.00;;;16.00;;
22778;SDS011;11556;51.194;3.800;2022-12-18T11:53:02;30.73;;;16.42;;
22778;SDS011;11556;51.194;3.800;2022-12-18T11:55:39;34.45;;;16.13;;
22778;SDS011;11556;51.194;3.800;2022-12-18T11:58:23;29.63;;;15.25;;
22778;SDS011;11556;51.194;3.800;2022-12-18T12:04:47;29.77;;;15.10;;
22778;SDS011;11556;51.194;3.800;2022-12-18T12:10:12;40.83;;;21.55;;
22778;SDS011;11556;51.194;3.800;2022-12-18T12:18:32;31.40;;;16.95;;
22778;SDS011;11556;51.194;3.800;2022-12-18T12:21:33;32.63;;;17.80;;
22778;SDS011;11556;51.194;3.800;2022-12-18T12:24:11;32.13;;;17.58;;
22778;SDS011;11556;51.194;3.800;2022-12-18T12:32:43;39.00;;;18.75;;
22778;SDS011;11556;51.194;3.800;2022-12-18T12:35:44;31.80;;;17.60;;
22778;SDS011;11556;51.194;3.800;2022-12-18T12:38:30;37.97;;;20.42;;
22778;SDS011;11556;51.194;3.800;2022-12-18T12:41:12;38.05;;;19.77;;
22778;SDS011;11556;51.194;3.800;2022-12-18T12:44:01;45.70;;;25.77;;
22778;SDS011;11556;51.194;3.800;2022-12-18T12:46:31;38.90;;;21.10;;
22778;SDS011;11556;51.194;3.800;2022-12-18T12:49:02;53.20;;;29.80;;
22778;SDS011;11556;51.194;3.800;2022-12-18T12:51:36;37.28;;;20.58;;
22778;SDS011;11556;51.194;3.800;2022-12-18T12:54:06;34.95;;;20.08;;
22778;SDS011;11556;51.194;3.800;2022-12-18T13:01:40;32.65;;;18.42;;
22778;SDS011;11556;51.194;3.800;2022-12-18T13:04:24;36.15;;;20.13;;
22778;SDS011;11556;51.194;3.800;2022-12-18T13:07:19;37.75;;;17.55;;
22778;SDS011;11556;51.194;3.800;2022-12-18T13:12:54;31.55;;;17.73;;
22778;SDS011;11556;51.194;3.800;2022-12-18T13:15:22;42.38;;;20.90;;
22778;SDS011;11556;51.194;3.800;2022-12-18T13:20:37;47.63;;;22.73;;
22778;SDS011;11556;51.194;3.800;2022-12-18T13:25:52;54.28;;;26.38;;
22778;SDS011;11556;51.194;3.800;2022-12-18T13:28:24;82.15;;;38.95;;
22778;SDS011;11556;51.194;3.800;2022-12-18T13:31:11;73.95;;;35.67;;
22778;SDS011;11556;51.194;3.800;2022-12-18T13:33:42;73.72;;;31.40;;
22778;SDS011;11556;51.194;3.800;2022-12-18T13:41:38;68.47;;;29.52;;
22778;SDS011;11556;51.194;3.800;2022-12-18T13:44:12;69.50;;;29.38;;
22778;SDS011;11556;51.194;3.800;2022-12-18T13:46:48;62.47;;;26.58;;
22778;SDS011;11556;51.194;3.800;2022-12-18T13:49:20;50.38;;;22.92;;
22778;SDS011;11556;51.194;3.800;2022-12-18T13:52:02;56.83;;;24.98;;
22778;SDS011;11556;51.194;3.800;2022-12-18T13:54:40;61.80;;;23.45;;
22778;SDS011;11556;51.194;3.800;2022-12-18T13:57:27;56.67;;;25.05;;
22778;SDS011;11556;51.194;3.800;2022-12-18T14:02:49;54.25;;;24.00;;
22778;SDS011;11556;51.194;3.800;2022-12-18T14:05:25;54.15;;;22.33;;
22778;SDS011;11556;51.194;3.800;2022-12-18T14:08:00;57.60;;;23.83;;
22778;SDS011;11556;51.194;3.800;2022-12-18T14:10:29;55.03;;;23.67;;
22778;SDS011;11556;51.194;3.800;2022-12-18T14:12:55;57.33;;;24.75;;
22778;SDS011;11556;51.194;3.800;2022-12-18T14:15:31;59.53;;;26.35;;
22778;SDS011;11556;51.194;3.800;2022-12-18T14:20:40;49.50;;;23.55;;
22778;SDS011;11556;51.194;3.800;2022-12-18T14:26:20;46.03;;;22.15;;
22778;SDS011;11556;51.194;3.800;2022-12-18T14:28:46;46.85;;;22.60;;
22778;SDS011;11556;51.194;3.800;2022-12-18T14:31:19;50.25;;;21.90;;
22778;SDS011;11556;51.194;3.800;2022-12-18T14:33:46;49.65;;;21.58;;
22778;SDS011;11556;51.194;3.800;2022-12-18T14:36:14;54.55;;;25.20;;
22778;SDS011;11556;51.194;3.800;2022-12-18T14:38:42;46.55;;;23.15;;
22778;SDS011;11556;51.194;3.800;2022-12-18T14:41:12;50.83;;;23.23;;
22778;SDS011;11556;51.194;3.800;2022-12-18T14:43:40;51.92;;;23.20;;
22778;SDS011;11556;51.194;3.800;2022-12-18T14:48:57;48.85;;;21.25;;
22778;SDS011;11556;51.194;3.800;2022-12-18T14:51:25;52.47;;;24.30;;
22778;SDS011;11556;51.194;3.800;2022-12-18T14:53:53;51.58;;;23.15;;
22778;SDS011;11556;51.194;3.800;2022-12-18T14:56:27;51.08;;;23.17;;
22778;SDS011;11556;51.194;3.800;2022-12-18T14:59:00;51.90;;;23.13;;
22778;SDS011;11556;51.194;3.800;2022-12-18T15:01:37;47.35;;;21.90;;
22778;SDS011;11556;51.194;3.800;2022-12-18T15:04:23;44.85;;;22.95;;
22778;SDS011;11556;51.194;3.800;2022-12-18T15:06:50;47.63;;;22.52;;
22778;SDS011;11556;51.194;3.800;2022-12-18T15:09:39;49.58;;;22.42;;
22778;SDS011;11556;51.194;3.800;2022-12-18T15:12:24;45.75;;;22.58;;
22778;SDS011;11556;51.194;3.800;2022-12-18T15:18:01;43.95;;;20.88;;
22778;SDS011;11556;51.194;3.800;2022-12-18T15:20:27;50.50;;;23.38;;
22778;SDS011;11556;51.194;3.800;2022-12-18T15:22:56;52.72;;;22.30;;
22778;SDS011;11556;51.194;3.800;2022-12-18T15:25:25;51.10;;;23.17;;
22778;SDS011;11556;51.194;3.800;2022-12-18T15:27:57;48.72;;;23.00;;
22778;SDS011;11556;51.194;3.800;2022-12-18T15:30:23;51.78;;;23.90;;
22778;SDS011;11556;51.194;3.800;2022-12-18T15:32:50;49.22;;;22.98;;
22778;SDS011;11556;51.194;3.800;2022-12-18T15:37:44;47.20;;;21.48;;
22778;SDS011;11556;51.194;3.800;2022-12-18T15:40:20;52.63;;;24.80;;
22778;SDS011;11556;51.194;3.800;2022-12-18T15:42:47;54.00;;;23.20;;
22778;SDS011;11556;51.194;3.800;2022-12-18T15:45:34;52.63;;;22.80;;
22778;SDS011;11556;51.194;3.800;2022-12-18T15:48:00;47.53;;;21.45;;
22778;SDS011;11556;51.194;3.800;2022-12-18T15:50:25;56.75;;;22.65;;
22778;SDS011;11556;51.194;3.800;2022-12-18T15:52:52;48.95;;;22.85;;
22778;SDS011;11556;51.194;3.800;2022-12-18T15:55:20;46.10;;;21.77;;
22778;SDS011;11556;51.194;3.800;2022-12-18T15:58:06;45.47;;;21.67;;
22778;SDS011;11556;51.194;3.800;2022-12-18T16:00:34;48.78;;;22.45;;
22778;SDS011;11556;51.194;3.800;2022-12-18T16:03:01;45.28;;;22.42;;
22778;SDS011;11556;51.194;3.800;2022-12-18T16:05:28;50.25;;;23.15;;
22778;SDS011;11556;51.194;3.800;2022-12-18T16:07:54;55.05;;;23.25;;
22778;SDS011;11556;51.194;3.800;2022-12-18T16:10:20;49.13;;;21.88;;
22778;SDS011;11556;51.194;3.800;2022-12-18T16:12:45;49.42;;;21.63;;
22778;SDS011;11556;51.194;3.800;2022-12-18T16:15:12;48.53;;;23.23;;
22778;SDS011;11556;51.194;3.800;2022-12-18T16:17:40;49.28;;;21.10;;
22778;SDS011;11556;51.194;3.800;2022-12-18T16:20:12;50.80;;;22.65;;
22778;SDS011;11556;51.194;3.800;2022-12-18T16:22:42;54.88;;;23.73;;
22778;SDS011;11556;51.194;3.800;2022-12-18T16:25:21;54.83;;;24.08;;
22778;SDS011;11556;51.194;3.800;2022-12-18T16:27:49;58.75;;;24.48;;
22778;SDS011;11556;51.194;3.800;2022-12-18T16:30:17;53.50;;;23.73;;
22778;SDS011;11556;51.194;3.800;2022-12-18T16:32:44;48.90;;;23.08;;